sensor_id;sensor_type;location;lat;lon;timestamp;pressure;altitude;pressure_sealevel;temperature;humidity
38530;BME280;24301;54.332;48.386;2023-03-20T00:01:23;99776.06;;;-0.18;100.00
38530;BME280;24301;54.332;48.386;2023-03-20T00:03:51;99768.13;;;-0.23;100.00
38530;BME280;24301;54.332;48.386;2023-03-20T00:06:19;99772.28;;;-0.26;100.00
38530;BME280;24301;54.332;48.386;2023-03-20T00:08:47;99769.56;;;-0.30;100.00
38530;BME280;24301;54.332;48.386;2023-03-20T00:11:34;99767.09;;;-0.26;100.00
38530;BME280;24301;54.332;48.386;2023-03-20T00:14:03;99768.75;;;-0.28;100.00
38530;BME280;24301;54.332;48.386;2023-03-20T00:16:38;99767.94;;;-0.27;100.00
38530;BME280;24301;54.332;48.386;2023-03-20T00:19:05;99763.72;;;-0.25;100.00
38530;BME280;24301;54.332;48.386;2023-03-20T00:21:31;99756.53;;;-0.11;100.00
38530;BME280;24301;54.332;48.386;2023-03-20T00:23:58;99753.44;;;-0.03;100.00
38530;BME280;24301;54.332;48.386;2023-03-20T00:26:32;99759.16;;;0.11;100.00
38530;BME280;24301;54.332;48.386;2023-03-20T00:29:00;99750.06;;;0.21;100.00
38530;BME280;24301;54.332;48.386;2023-03-20T00:31:31;99757.47;;;0.35;100.00
38530;BME280;24301;54.332;48.386;2023-03-20T00:34:01;99758.53;;;0.40;100.00
38530;BME280;24301;54.332;48.386;2023-03-20T00:36:28;99751.13;;;0.49;100.00
38530;BME280;24301;54.332;48.386;2023-03-20T00:38:54;99760.88;;;0.56;100.00
38530;BME280;24301;54.332;48.386;2023-03-20T00:41:26;99755.13;;;0.64;100.00
38530;BME280;24301;54.332;48.386;2023-03-20T00:43:57;99753.00;;;0.76;100.00
38530;BME280;24301;54.332;48.386;2023-03-20T00:46:24;99749.88;;;0.85;100.00
38530;BME280;24301;54.332;48.386;2023-03-20T00:48:51;99754.63;;;0.97;100.00
38530;BME280;24301;54.332;48.386;2023-03-20T00:51:17;99741.78;;;1.00;100.00
38530;BME280;24301;54.332;48.386;2023-03-20T00:53:44;99740.28;;;1.07;100.00
38530;BME280;24301;54.332;48.386;2023-03-20T00:56:39;99733.00;;;1.21;100.00
38530;BME280;24301;54.332;48.386;2023-03-20T00:59:14;99734.81;;;1.23;100.00
38530;BME280;24301;54.332;48.386;2023-03-20T01:01:41;99735.88;;;1.28;100.00
38530;BME280;24301;54.332;48.386;2023-03-20T01:04:13;99731.78;;;1.35;100.00
38530;BME280;24301;54.332;48.386;2023-03-20T01:06:39;99737.22;;;1.43;100.00
38530;BME280;24301;54.332;48.386;2023-03-20T01:09:05;99743.59;;;1.53;100.00
38530;BME280;24301;54.332;48.386;2023-03-20T01:11:31;99736.84;;;1.58;100.00
38530;BME280;24301;54.332;48.386;2023-03-20T01:13:57;99736.13;;;1.62;100.00
38530;BME280;24301;54.332;48.386;2023-03-20T01:16:25;99720.63;;;1.64;100.00
38530;BME280;24301;54.332;48.386;2023-03-20T01:18:51;99734.50;;;1.64;100.00
38530;BME280;24301;54.332;48.386;2023-03-20T01:21:19;99738.03;;;1.66;100.00
38530;BME280;24301;54.332;48.386;2023-03-20T01:23:47;99724.31;;;1.70;100.00
38530;BME280;24301;54.332;48.386;2023-03-20T01:26:21;99729.63;;;1.75;100.00
38530;BME280;24301;54.332;48.386;2023-03-20T01:28:49;99722.66;;;1.72;100.00
38530;BME280;24301;54.332;48.386;2023-03-20T01:31:16;99720.91;;;1.71;100.00
38530;BME280;24301;54.332;48.386;2023-03-20T01:33:42;99726.19;;;1.75;100.00
38530;BME280;24301;54.332;48.386;2023-03-20T01:36:10;99722.66;;;1.72;100.00
38530;BME280;24301;54.332;48.386;2023-03-20T01:38:37;99720.09;;;1.74;100.00
38530;BME280;24301;54.332;48.386;2023-03-20T01:41:15;99714.09;;;1.75;100.00
38530;BME280;24301;54.332;48.386;2023-03-20T01:43:44;99716.66;;;1.75;100.00
38530;BME280;24301;54.332;48.386;2023-03-20T01:51:20;99713.41;;;1.81;100.00
38530;BME280;24301;54.332;48.386;2023-03-20T01:54:08;99717.75;;;1.82;100.00
38530;BME280;24301;54.332;48.386;2023-03-20T01:56:50;99706.47;;;1.80;100.00
38530;BME280;24301;54.332;48.386;2023-03-20T01:59:23;99714.16;;;1.77;100.00
38530;BME280;24301;54.332;48.386;2023-03-20T02:01:51;99713.41;;;1.81;100.00
38530;BME280;24301;54.332;48.386;2023-03-20T02:04:25;99718.69;;;1.84;100.00
38530;BME280;24301;54.332;48.386;2023-03-20T02:07:02;99715.34;;;1.86;100.00
38530;BME280;24301;54.332;48.386;2023-03-20T02:09:39;99711.00;;;1.87;100.00
38530;BME280;24301;54.332;48.386;2023-03-20T02:12:10;99719.63;;;1.86;100.00
38530;BME280;24301;54.332;48.386;2023-03-20T02:14:37;99716.09;;;1.84;100.00
38530;BME280;24301;54.332;48.386;2023-03-20T02:17:39;99707.41;;;1.82;100.00
38530;BME280;24301;54.332;48.386;2023-03-20T02:20:19;99700.59;;;1.85;100.00
38530;BME280;24301;54.332;48.386;2023-03-20T02:22:52;99710.97;;;1.85;99.72
38530;BME280;24301;54.332;48.386;2023-03-20T02:36:31;99709.25;;;1.86;99.14
38530;BME280;24301;54.332;48.386;2023-03-20T02:42:43;99710.16;;;1.86;98.78
38530;BME280;24301;54.332;48.386;2023-03-20T02:45:19;99712.91;;;1.91;98.47
38530;BME280;24301;54.332;48.386;2023-03-20T02:51:18;99709.59;;;1.97;98.08
38530;BME280;24301;54.332;48.386;2023-03-20T02:54:06;99716.34;;;1.92;98.23
38530;BME280;24301;54.332;48.386;2023-03-20T02:56:41;99714.53;;;1.89;97.79
38530;BME280;24301;54.332;48.386;2023-03-20T02:59:42;99704.38;;;1.95;97.88
38530;BME280;24301;54.332;48.386;2023-03-20T03:02:56;99715.97;;;2.07;97.92
38530;BME280;24301;54.332;48.386;2023-03-20T03:05:33;99697.38;;;1.93;97.13
38530;BME280;24301;54.332;48.386;2023-03-20T03:08:02;99709.59;;;1.97;97.20
38530;BME280;24301;54.332;48.386;2023-03-20T03:10:36;99702.72;;;1.97;96.53
38530;BME280;24301;54.332;48.386;2023-03-20T03:13:04;99699.38;;;2.01;96.96
38530;BME280;24301;54.332;48.386;2023-03-20T03:15:38;99693.44;;;2.06;96.52
38530;BME280;24301;54.332;48.386;2023-03-20T03:18:06;99689.28;;;2.11;96.11
38530;BME280;24301;54.332;48.386;2023-03-20T03:20:37;99683.22;;;2.10;95.91
38530;BME280;24301;54.332;48.386;2023-03-20T03:23:05;99693.53;;;2.09;95.18
38530;BME280;24301;54.332;48.386;2023-03-20T03:25:35;99678.91;;;2.11;95.83
38530;BME280;24301;54.332;48.386;2023-03-20T03:28:07;99697.97;;;2.13;95.56
38530;BME280;24301;54.332;48.386;2023-03-20T03:30:37;99696.47;;;2.20;95.04
38530;BME280;24301;54.332;48.386;2023-03-20T03:33:23;99688.03;;;2.27;94.96
38530;BME280;24301;54.332;48.386;2023-03-20T03:35:55;99686.25;;;2.24;94.49
38530;BME280;24301;54.332;48.386;2023-03-20T03:39:22;99689.56;;;2.20;94.28
38530;BME280;24301;54.332;48.386;2023-03-20T03:41:56;99692.09;;;2.19;94.46
38530;BME280;24301;54.332;48.386;2023-03-20T03:44:28;99698.28;;;2.22;94.21
38530;BME280;24301;54.332;48.386;2023-03-20T03:49:32;99696.88;;;2.34;94.34
38530;BME280;24301;54.332;48.386;2023-03-20T03:52:07;99688.25;;;2.35;93.77
38530;BME280;24301;54.332;48.386;2023-03-20T03:54:42;99699.56;;;2.37;93.41
38530;BME280;24301;54.332;48.386;2023-03-20T03:57:40;99705.88;;;2.45;93.62
38530;BME280;24301;54.332;48.386;2023-03-20T04:00:13;99700.97;;;2.54;93.52
38530;BME280;24301;54.332;48.386;2023-03-20T04:02:44;99705.53;;;2.63;93.39
38530;BME280;24301;54.332;48.386;2023-03-20T04:05:13;99700.44;;;2.66;92.87
38530;BME280;24301;54.332;48.386;2023-03-20T04:07:46;99702.19;;;2.67;92.54
38530;BME280;24301;54.332;48.386;2023-03-20T04:10:13;99710.03;;;2.69;92.07
38530;BME280;24301;54.332;48.386;2023-03-20T04:12:42;99704.75;;;2.66;91.40
38530;BME280;24301;54.332;48.386;2023-03-20T04:15:10;99714.31;;;2.67;91.68
38530;BME280;24301;54.332;48.386;2023-03-20T04:17:37;99711.50;;;2.61;91.25
38530;BME280;24301;54.332;48.386;2023-03-20T04:20:04;99706.31;;;2.61;90.90
38530;BME280;24301;54.332;48.386;2023-03-20T04:22:31;99711.59;;;2.64;91.34
38530;BME280;24301;54.332;48.386;2023-03-20T04:25:07;99706.22;;;2.56;90.35
38530;BME280;24301;54.332;48.386;2023-03-20T04:27:33;99709.66;;;2.56;90.58
38530;BME280;24301;54.332;48.386;2023-03-20T04:30:02;99707.13;;;2.58;90.48
38530;BME280;24301;54.332;48.386;2023-03-20T04:32:46;99701.94;;;2.58;90.49
38530;BME280;24301;54.332;48.386;2023-03-20T04:35:18;99706.59;;;2.70;90.41
38530;BME280;24301;54.332;48.386;2023-03-20T04:37:54;99700.81;;;2.80;90.78
38530;BME280;24301;54.332;48.386;2023-03-20T04:40:20;99713.19;;;2.89;89.97
38530;BME280;24301;54.332;48.386;2023-03-20T04:42:46;99702.94;;;2.94;89.54
38530;BME280;24301;54.332;48.386;2023-03-20T04:45:12;99694.34;;;2.96;89.69
38530;BME280;24301;54.332;48.386;2023-03-20T04:47:38;99697.00;;;2.98;89.31
38530;BME280;24301;54.332;48.386;2023-03-20T04:50:05;99697.00;;;2.99;89.32
38530;BME280;24301;54.332;48.386;2023-03-20T04:52:31;99695.44;;;3.05;88.85
38530;BME280;24301;54.332;48.386;2023-03-20T04:54:57;99696.44;;;3.10;88.51
38530;BME280;24301;54.332;48.386;2023-03-20T04:57:23;99700.19;;;3.20;88.77
38530;BME280;24301;54.332;48.386;2023-03-20T04:59:50;99700.34;;;3.26;88.21
38530;BME280;24301;54.332;48.386;2023-03-20T05:02:16;99694.13;;;3.21;87.63
38530;BME280;24301;54.332;48.386;2023-03-20T05:04:43;99692.56;;;3.27;87.87
38530;BME280;24301;54.332;48.386;2023-03-20T05:07:09;99702.94;;;3.26;87.35
38530;BME280;24301;54.332;48.386;2023-03-20T05:09:46;99696.84;;;2.93;85.64
38530;BME280;24301;54.332;48.386;2023-03-20T05:12:13;99691.50;;;2.56;85.60
38530;BME280;24301;54.332;48.386;2023-03-20T05:14:55;99692.53;;;2.33;86.97
38530;BME280;24301;54.332;48.386;2023-03-20T05:17:40;99698.38;;;2.25;88.32
38530;BME280;24301;54.332;48.386;2023-03-20T05:20:44;99692.91;;;2.16;89.05
38530;BME280;24301;54.332;48.386;2023-03-20T05:23:27;99694.63;;;2.15;89.00
38530;BME280;24301;54.332;48.386;2023-03-20T05:26:22;99695.34;;;2.11;89.19
38530;BME280;24301;54.332;48.386;2023-03-20T05:29:14;99697.63;;;2.00;89.03
38530;BME280;24301;54.332;48.386;2023-03-20T05:31:58;99702.72;;;1.97;89.87
38530;BME280;24301;54.332;48.386;2023-03-20T05:34:44;99696.25;;;1.84;90.07
38530;BME280;24301;54.332;48.386;2023-03-20T05:37:18;99704.16;;;1.89;90.34
38530;BME280;24301;54.332;48.386;2023-03-20T05:40:05;99701.28;;;1.80;91.06
38530;BME280;24301;54.332;48.386;2023-03-20T05:42:51;99695.06;;;1.75;91.25
38530;BME280;24301;54.332;48.386;2023-03-20T05:45:28;99691.47;;;1.71;91.62
38530;BME280;24301;54.332;48.386;2023-03-20T05:48:26;99697.59;;;1.73;91.90
38530;BME280;24301;54.332;48.386;2023-03-20T05:51:10;99696.63;;;1.69;92.37
38530;BME280;24301;54.332;48.386;2023-03-20T05:53:48;99701.91;;;1.72;92.42
38530;BME280;24301;54.332;48.386;2023-03-20T05:56:28;99696.53;;;1.66;92.26
38530;BME280;24301;54.332;48.386;2023-03-20T05:59:17;99693.78;;;1.62;92.36
38530;BME280;24301;54.332;48.386;2023-03-20T06:02:03;99691.22;;;1.63;93.06
38530;BME280;24301;54.332;48.386;2023-03-20T06:04:33;99685.28;;;1.66;93.42
38530;BME280;24301;54.332;48.386;2023-03-20T06:07:03;99682.69;;;1.66;93.27
38530;BME280;24301;54.332;48.386;2023-03-20T06:09:29;99677.34;;;1.61;92.94
38530;BME280;24301;54.332;48.386;2023-03-20T06:11:56;99676.38;;;1.57;92.84
38530;BME280;24301;54.332;48.386;2023-03-20T06:14:22;99677.25;;;1.58;93.17
38530;BME280;24301;54.332;48.386;2023-03-20T06:16:55;99676.16;;;1.51;93.96
38530;BME280;24301;54.332;48.386;2023-03-20T06:19:22;99675.56;;;1.60;94.33
38530;BME280;24301;54.332;48.386;2023-03-20T06:21:49;99675.47;;;1.57;93.61
38530;BME280;24301;54.332;48.386;2023-03-20T06:24:18;99679.09;;;1.62;93.55
38530;BME280;24301;54.332;48.386;2023-03-20T06:26:44;99678.25;;;1.62;93.49
38530;BME280;24301;54.332;48.386;2023-03-20T06:29:11;99673.25;;;1.68;93.62
38530;BME280;24301;54.332;48.386;2023-03-20T06:31:39;99682.88;;;1.72;93.66
38530;BME280;24301;54.332;48.386;2023-03-20T06:34:09;99670.31;;;1.84;94.25
38530;BME280;24301;54.332;48.386;2023-03-20T06:36:40;99673.34;;;1.98;93.11
38530;BME280;24301;54.332;48.386;2023-03-20T06:39:14;99669.03;;;1.99;92.33
38530;BME280;24301;54.332;48.386;2023-03-20T06:41:40;99658.75;;;2.02;92.36
38530;BME280;24301;54.332;48.386;2023-03-20T06:44:08;99678.19;;;2.15;91.94
38530;BME280;24301;54.332;48.386;2023-03-20T06:46:56;99673.72;;;2.11;91.12
38530;BME280;24301;54.332;48.386;2023-03-20T06:49:22;99675.34;;;2.07;90.80
38530;BME280;24301;54.332;48.386;2023-03-20T06:51:48;99670.84;;;2.01;91.11
38530;BME280;24301;54.332;48.386;2023-03-20T06:54:22;99675.28;;;2.06;90.80
38530;BME280;24301;54.332;48.386;2023-03-20T06:56:48;99672.16;;;2.16;91.34
38530;BME280;24301;54.332;48.386;2023-03-20T06:59:13;99675.03;;;2.25;91.23
38530;BME280;24301;54.332;48.386;2023-03-20T07:01:39;99669.09;;;2.29;90.56
38530;BME280;24301;54.332;48.386;2023-03-20T07:04:06;99675.16;;;2.30;90.02
38530;BME280;24301;54.332;48.386;2023-03-20T07:06:39;99679.63;;;2.36;90.18
38530;BME280;24301;54.332;48.386;2023-03-20T07:09:05;99675.91;;;2.56;90.18
38530;BME280;24301;54.332;48.386;2023-03-20T07:11:32;99678.97;;;2.72;90.01
38530;BME280;24301;54.332;48.386;2023-03-20T07:14:00;99666.16;;;2.78;88.47
38530;BME280;24301;54.332;48.386;2023-03-20T07:16:37;99668.81;;;2.81;87.80
38530;BME280;24301;54.332;48.386;2023-03-20T07:19:03;99663.69;;;2.83;87.68
38530;BME280;24301;54.332;48.386;2023-03-20T07:21:33;99657.41;;;3.08;88.27
38530;BME280;24301;54.332;48.386;2023-03-20T07:23:59;99664.81;;;3.26;87.49
38530;BME280;24301;54.332;48.386;2023-03-20T07:26:26;99659.75;;;3.31;86.35
38530;BME280;24301;54.332;48.386;2023-03-20T07:28:52;99665.28;;;3.43;86.77
38530;BME280;24301;54.332;48.386;2023-03-20T07:31:23;99653.78;;;3.35;84.76
38530;BME280;24301;54.332;48.386;2023-03-20T07:34:02;99654.31;;;3.22;84.54
38530;BME280;24301;54.332;48.386;2023-03-20T07:36:28;99658.94;;;3.00;84.09
38530;BME280;24301;54.332;48.386;2023-03-20T07:38:54;99653.75;;;3.00;85.30
38530;BME280;24301;54.332;48.386;2023-03-20T07:41:20;99654.88;;;3.10;85.34
38530;BME280;24301;54.332;48.386;2023-03-20T07:43:57;99654.25;;;3.19;84.87
38530;BME280;24301;54.332;48.386;2023-03-20T07:46:23;99661.22;;;3.21;84.35
38530;BME280;24301;54.332;48.386;2023-03-20T07:48:49;99658.00;;;3.30;84.41
38530;BME280;24301;54.332;48.386;2023-03-20T07:51:15;99658.06;;;3.33;83.77
38530;BME280;24301;54.332;48.386;2023-03-20T07:53:41;99657.91;;;3.27;83.20
38530;BME280;24301;54.332;48.386;2023-03-20T07:56:09;99657.28;;;3.37;83.79
38530;BME280;24301;54.332;48.386;2023-03-20T07:58:35;99656.75;;;3.15;82.35
38530;BME280;24301;54.332;48.386;2023-03-20T08:01:02;99660.72;;;3.01;83.50
38530;BME280;24301;54.332;48.386;2023-03-20T08:03:28;99650.31;;;3.01;83.88
38530;BME280;24301;54.332;48.386;2023-03-20T08:05:54;99652.00;;;3.00;84.50
38530;BME280;24301;54.332;48.386;2023-03-20T08:08:20;99645.19;;;3.04;83.99
38530;BME280;24301;54.332;48.386;2023-03-20T08:10:46;99634.53;;;3.27;84.34
38530;BME280;24301;54.332;48.386;2023-03-20T08:13:12;99642.09;;;3.53;84.04
38530;BME280;24301;54.332;48.386;2023-03-20T08:15:38;99632.81;;;3.64;82.76
38530;BME280;24301;54.332;48.386;2023-03-20T08:18:05;99631.47;;;3.80;82.78
38530;BME280;24301;54.332;48.386;2023-03-20T08:20:31;99644.25;;;3.71;81.27
38530;BME280;24301;54.332;48.386;2023-03-20T08:22:56;99631.63;;;3.50;81.22
38530;BME280;24301;54.332;48.386;2023-03-20T08:25:22;99636.16;;;3.58;81.97
38530;BME280;24301;54.332;48.386;2023-03-20T08:27:48;99632.31;;;3.42;81.40
38530;BME280;24301;54.332;48.386;2023-03-20T08:30:15;99626.94;;;3.36;82.20
38530;BME280;24301;54.332;48.386;2023-03-20T08:32:41;99631.09;;;3.28;81.85
38530;BME280;24301;54.332;48.386;2023-03-20T08:35:08;99631.94;;;3.27;82.30
38530;BME280;24301;54.332;48.386;2023-03-20T08:37:34;99628.78;;;3.40;82.41
38530;BME280;24301;54.332;48.386;2023-03-20T08:40:03;99620.25;;;3.44;81.58
38530;BME280;24301;54.332;48.386;2023-03-20T08:42:29;99619.28;;;3.41;81.81
38530;BME280;24301;54.332;48.386;2023-03-20T08:44:55;99621.28;;;3.53;81.75
38530;BME280;24301;54.332;48.386;2023-03-20T08:47:21;99619.81;;;3.64;81.34
38530;BME280;24301;54.332;48.386;2023-03-20T08:49:47;99617.72;;;3.86;81.60
38530;BME280;24301;54.332;48.386;2023-03-20T08:52:13;99611.41;;;3.76;79.93
38530;BME280;24301;54.332;48.386;2023-03-20T08:54:39;99613.28;;;3.80;80.47
38530;BME280;24301;54.332;48.386;2023-03-20T08:57:05;99616.75;;;3.81;80.35
38530;BME280;24301;54.332;48.386;2023-03-20T08:59:31;99618.13;;;4.05;80.61
38530;BME280;24301;54.332;48.386;2023-03-20T09:01:57;99607.06;;;4.15;78.77
38530;BME280;24301;54.332;48.386;2023-03-20T09:04:23;99618.31;;;4.14;78.85
38530;BME280;24301;54.332;48.386;2023-03-20T09:06:50;99612.28;;;4.15;78.67
38530;BME280;24301;54.332;48.386;2023-03-20T09:09:16;99594.50;;;4.37;78.64
38530;BME280;24301;54.332;48.386;2023-03-20T09:11:44;99614.84;;;4.55;78.34
38530;BME280;24301;54.332;48.386;2023-03-20T09:14:10;99601.78;;;4.53;76.78
38530;BME280;24301;54.332;48.386;2023-03-20T09:16:36;99600.13;;;4.57;76.59
38530;BME280;24301;54.332;48.386;2023-03-20T09:19:02;99608.75;;;4.54;76.80
38530;BME280;24301;54.332;48.386;2023-03-20T09:21:28;99607.06;;;4.56;76.60
38530;BME280;24301;54.332;48.386;2023-03-20T09:23:54;99607.06;;;4.56;76.28
38530;BME280;24301;54.332;48.386;2023-03-20T09:26:20;99595.69;;;4.53;76.42
38530;BME280;24301;54.332;48.386;2023-03-20T09:28:46;99591.47;;;4.58;76.09
38530;BME280;24301;54.332;48.386;2023-03-20T09:31:12;99595.06;;;4.65;75.62
38530;BME280;24301;54.332;48.386;2023-03-20T09:33:37;99595.22;;;4.72;75.96
38530;BME280;24301;54.332;48.386;2023-03-20T09:36:03;99581.63;;;4.91;76.03
38530;BME280;24301;54.332;48.386;2023-03-20T09:38:30;99586.69;;;4.81;74.15
38530;BME280;24301;54.332;48.386;2023-03-20T09:40:58;99592.28;;;4.55;74.80
38530;BME280;24301;54.332;48.386;2023-03-20T09:43:43;99592.69;;;4.31;76.16
38530;BME280;24301;54.332;48.386;2023-03-20T09:51:54;99592.38;;;3.77;78.36
38530;BME280;24301;54.332;48.386;2023-03-20T09:54:34;99584.16;;;3.58;79.60
38530;BME280;24301;54.332;48.386;2023-03-20T09:57:02;99592.50;;;3.43;79.94
38530;BME280;24301;54.332;48.386;2023-03-20T09:59:32;99583.53;;;3.32;80.57
38530;BME280;24301;54.332;48.386;2023-03-20T10:02:05;99581.19;;;3.43;81.14
38530;BME280;24301;54.332;48.386;2023-03-20T10:04:33;99582.75;;;3.36;81.12
38530;BME280;24301;54.332;48.386;2023-03-20T10:07:02;99586.13;;;3.30;81.26
38530;BME280;24301;54.332;48.386;2023-03-20T10:09:29;99585.16;;;3.27;81.95
38530;BME280;24301;54.332;48.386;2023-03-20T10:15:06;99575.72;;;3.30;81.95
38530;BME280;24301;54.332;48.386;2023-03-20T10:17:47;99571.31;;;3.28;82.63
38530;BME280;24301;54.332;48.386;2023-03-20T10:20:41;99574.91;;;3.33;82.00
38530;BME280;24301;54.332;48.386;2023-03-20T10:25:55;99575.34;;;3.52;83.03
38530;BME280;24301;54.332;48.386;2023-03-20T10:28:42;99572.09;;;3.62;82.06
38530;BME280;24301;54.332;48.386;2023-03-20T10:34:25;99565.16;;;4.01;81.09
38530;BME280;24301;54.332;48.386;2023-03-20T10:42:44;99570.63;;;4.15;79.11
38530;BME280;24301;54.332;48.386;2023-03-20T10:45:45;99572.88;;;3.96;79.64
38530;BME280;24301;54.332;48.386;2023-03-20T10:48:22;99564.97;;;3.92;80.12
38530;BME280;24301;54.332;48.386;2023-03-20T10:50:55;99560.84;;;4.01;80.19
38530;BME280;24301;54.332;48.386;2023-03-20T10:53:35;99561.81;;;4.07;79.67
38530;BME280;24301;54.332;48.386;2023-03-20T10:56:05;99559.47;;;4.19;79.60
38530;BME280;24301;54.332;48.386;2023-03-20T10:58:38;99550.66;;;4.14;79.09
38530;BME280;24301;54.332;48.386;2023-03-20T11:01:05;99559.94;;;3.99;79.19
38530;BME280;24301;54.332;48.386;2023-03-20T11:03:32;99551.91;;;3.90;79.32
38530;BME280;24301;54.332;48.386;2023-03-20T11:06:06;99553.81;;;3.97;79.60
38530;BME280;24301;54.332;48.386;2023-03-20T11:08:36;99553.81;;;3.97;79.50
38530;BME280;24301;54.332;48.386;2023-03-20T11:11:03;99551.84;;;3.87;79.65
38530;BME280;24301;54.332;48.386;2023-03-20T11:13:37;99528.47;;;3.88;79.98
38530;BME280;24301;54.332;48.386;2023-03-20T11:18:40;99537.09;;;3.86;80.16
38530;BME280;24301;54.332;48.386;2023-03-20T11:21:17;99534.63;;;3.92;79.80
38530;BME280;24301;54.332;48.386;2023-03-20T11:23:43;99536.34;;;3.92;79.93
38530;BME280;24301;54.332;48.386;2023-03-20T11:26:15;99531.09;;;3.90;80.51
38530;BME280;24301;54.332;48.386;2023-03-20T11:28:46;99520.84;;;3.98;80.45
38530;BME280;24301;54.332;48.386;2023-03-20T11:36:24;99519.53;;;4.19;79.24
38530;BME280;24301;54.332;48.386;2023-03-20T11:38:51;99515.22;;;4.19;79.18
38530;BME280;24301;54.332;48.386;2023-03-20T11:41:26;99510.66;;;4.09;79.03
38530;BME280;24301;54.332;48.386;2023-03-20T11:43:52;99503.31;;;3.89;79.74
38530;BME280;24301;54.332;48.386;2023-03-20T11:46:20;99504.41;;;3.99;79.96
38530;BME280;24301;54.332;48.386;2023-03-20T11:49:05;99508.84;;;4.05;79.79
38530;BME280;24301;54.332;48.386;2023-03-20T11:51:31;99496.44;;;3.91;80.01
38530;BME280;24301;54.332;48.386;2023-03-20T11:54:02;99490.47;;;3.95;80.52
38530;BME280;24301;54.332;48.386;2023-03-20T11:56:32;99486.91;;;3.92;80.19
38530;BME280;24301;54.332;48.386;2023-03-20T11:59:02;99489.56;;;3.93;80.03
38530;BME280;24301;54.332;48.386;2023-03-20T12:01:44;99484.03;;;3.78;80.30
38530;BME280;24301;54.332;48.386;2023-03-20T12:04:27;99486.63;;;3.78;80.67
38530;BME280;24301;54.332;48.386;2023-03-20T12:07:05;99485.91;;;3.83;80.65
38530;BME280;24301;54.332;48.386;2023-03-20T12:15:00;99479.84;;;3.84;80.02
38530;BME280;24301;54.332;48.386;2023-03-20T12:20:03;99479.69;;;3.78;81.04
38530;BME280;24301;54.332;48.386;2023-03-20T12:25:37;99462.28;;;3.74;79.89
38530;BME280;24301;54.332;48.386;2023-03-20T12:36:36;99458.19;;;3.44;81.19
38530;BME280;24301;54.332;48.386;2023-03-20T12:39:05;99472.03;;;3.43;81.39
38530;BME280;24301;54.332;48.386;2023-03-20T12:44:48;99453.63;;;3.34;81.73
38530;BME280;24301;54.332;48.386;2023-03-20T12:53:21;99448.84;;;3.14;83.04
38530;BME280;24301;54.332;48.386;2023-03-20T12:56:07;99447.03;;;3.10;83.16
38530;BME280;24301;54.332;48.386;2023-03-20T13:01:24;99438.75;;;2.90;83.62
38530;BME280;24301;54.332;48.386;2023-03-20T13:06:51;99431.31;;;2.67;85.75
38530;BME280;24301;54.332;48.386;2023-03-20T13:09:45;99435.47;;;2.60;85.82
38530;BME280;24301;54.332;48.386;2023-03-20T13:17:55;99423.38;;;2.27;87.84
38530;BME280;24301;54.332;48.386;2023-03-20T13:20:31;99419.63;;;2.15;88.37
38530;BME280;24301;54.332;48.386;2023-03-20T13:23:23;99415.00;;;2.04;89.19
38530;BME280;24301;54.332;48.386;2023-03-20T13:29:38;99429.28;;;1.89;90.98
38530;BME280;24301;54.332;48.386;2023-03-20T13:34:56;99414.00;;;1.98;90.45
38530;BME280;24301;54.332;48.386;2023-03-20T13:37:36;99398.94;;;1.85;90.59
38530;BME280;24301;54.332;48.386;2023-03-20T13:40:51;99393.44;;;1.74;91.36
38530;BME280;24301;54.332;48.386;2023-03-20T13:43:25;99411.44;;;1.68;92.32
38530;BME280;24301;54.332;48.386;2023-03-20T13:46:17;99387.09;;;1.63;91.96
38530;BME280;24301;54.332;48.386;2023-03-20T13:48:45;99383.63;;;1.62;92.58
38530;BME280;24301;54.332;48.386;2023-03-20T13:51:40;99389.63;;;1.61;93.01
38530;BME280;24301;54.332;48.386;2023-03-20T13:54:21;99381.78;;;1.58;93.04
38530;BME280;24301;54.332;48.386;2023-03-20T13:57:15;99366.81;;;1.48;93.38
38530;BME280;24301;54.332;48.386;2023-03-20T14:05:25;99380.81;;;1.24;94.55
38530;BME280;24301;54.332;48.386;2023-03-20T14:07:56;99372.78;;;1.14;95.96
38530;BME280;24301;54.332;48.386;2023-03-20T14:12:54;99399.88;;;0.97;96.61
38530;BME280;24301;54.332;48.386;2023-03-20T14:15:22;99388.25;;;0.84;97.22
38530;BME280;24301;54.332;48.386;2023-03-20T14:17:51;99388.00;;;0.76;98.02
38530;BME280;24301;54.332;48.386;2023-03-20T14:20:30;99386.16;;;0.72;98.36
38530;BME280;24301;54.332;48.386;2023-03-20T14:22:57;99390.44;;;0.71;99.08
38530;BME280;24301;54.332;48.386;2023-03-20T14:25:23;99393.19;;;0.76;99.28
38530;BME280;24301;54.332;48.386;2023-03-20T14:27:58;99389.00;;;0.80;99.07
38530;BME280;24301;54.332;48.386;2023-03-20T14:33:05;99388.09;;;0.79;98.74
38530;BME280;24301;54.332;48.386;2023-03-20T14:39:06;99392.53;;;0.83;98.38
38530;BME280;24301;54.332;48.386;2023-03-20T14:47:29;99391.53;;;0.78;97.88
38530;BME280;24301;54.332;48.386;2023-03-20T14:50:24;99387.13;;;0.76;98.11
38530;BME280;24301;54.332;48.386;2023-03-20T14:55:31;99389.44;;;0.39;98.64
38530;BME280;24301;54.332;48.386;2023-03-20T14:58:05;99393.44;;;0.31;99.30
38530;BME280;24301;54.332;48.386;2023-03-20T15:00:50;99376.19;;;0.30;100.00
38530;BME280;24301;54.332;48.386;2023-03-20T15:03:16;99370.81;;;0.23;100.00
38530;BME280;24301;54.332;48.386;2023-03-20T15:05:43;99381.88;;;0.19;100.00
38530;BME280;24301;54.332;48.386;2023-03-20T15:10:45;99381.50;;;0.08;100.00
38530;BME280;24301;54.332;48.386;2023-03-20T15:13:13;99387.44;;;0.06;100.00
38530;BME280;24301;54.332;48.386;2023-03-20T15:15:54;99400.25;;;0.01;100.00
38530;BME280;24301;54.332;48.386;2023-03-20T15:18:22;99378.25;;;-0.12;100.00
38530;BME280;24301;54.332;48.386;2023-03-20T15:20:49;99381.78;;;-0.10;100.00
38530;BME280;24301;54.332;48.386;2023-03-20T15:23:15;99373.63;;;-0.21;100.00
38530;BME280;24301;54.332;48.386;2023-03-20T15:25:43;99389.16;;;-0.21;100.00
38530;BME280;24301;54.332;48.386;2023-03-20T15:28:19;99376.16;;;-0.22;100.00
38530;BME280;24301;54.332;48.386;2023-03-20T15:30:48;99374.19;;;-0.30;100.00